56II weather

Adams Co Memorial Hospital Heliport
Decatur, Indiana, United States

Public forecast

Using degrees Fahrenheit for public forecast. Weather courtesy of forecast.io.

Closest aviation weather report (METAR) to Adams Co Memorial Hospital Heliport

Closest report is Fort Wayne International Airport, 15.8 nm (29.2 km) NW. Retrieved 2020/02/29 00:54 UTC (26 minutes ago):

KFWA 290054Z 27008KT 10SM CLR M08/M13 A3005 RMK AO2 SLP189 T10781128

Closest aviation forecast (TAF) to Adams Co Memorial Hospital Heliport

Closest forecast is Fort Wayne International Airport, 15.8 nm (29.2 km) NW. Retrieved 2020-02-29 00:22 UTC (58 minutes ago):

TAF KFWA 282320Z 2900/2924 28012KT P6SM SCT040 BKN200 FM291000 26009KT P6SM SCT200